createdAt,value
2023-01-07T00:01:17.713Z,100550.69
2023-01-07T00:03:46.488Z,100550.81
2023-01-07T00:06:16.561Z,100543.56
2023-01-07T00:08:46.466Z,100535.72
2023-01-07T00:11:19.422Z,100551.47
2023-01-07T00:13:49.496Z,100553.50
2023-01-07T00:16:19.815Z,100550.69
2023-01-07T00:18:48.579Z,100556.75
2023-01-07T00:21:18.287Z,100551.47
2023-01-07T00:23:47.293Z,100509.94
2023-01-07T00:26:17.238Z,100518.09
2023-01-07T00:28:48.094Z,100549.63
2023-01-07T00:31:18.215Z,100525.84
2023-01-07T00:33:51.885Z,100543.22
2023-01-07T00:36:22.255Z,100531.03
2023-01-07T00:38:56.923Z,100543.84
2023-01-07T00:41:25.290Z,100520.34
2023-01-07T00:43:54.872Z,100536.91
2023-01-07T00:46:23.020Z,100540.38
2023-01-07T00:48:51.466Z,100503.28
2023-01-07T00:51:19.951Z,100527.41
2023-01-07T00:53:48.631Z,100527.38
2023-01-07T00:56:19.080Z,100524.00
2023-01-07T00:58:47.345Z,100499.41
2023-01-07T01:01:17.964Z,100529.19
2023-01-07T01:03:46.494Z,100487.09
2023-01-07T01:06:16.712Z,100500.53
2023-01-07T01:08:45.233Z,100507.78
2023-01-07T01:11:14.891Z,100509.16
2023-01-07T01:13:43.380Z,100509.53
2023-01-07T01:16:14.961Z,100511.38
2023-01-07T01:18:45.168Z,100507.78
2023-01-07T01:21:14.137Z,100512.16
2023-01-07T01:23:42.533Z,100515.81
2023-01-07T01:26:13.706Z,100397.28
2023-01-07T01:28:41.804Z,100498.72
2023-01-07T01:31:11.004Z,100405.16
2023-01-07T01:33:49.542Z,100422.81
2023-01-07T01:36:18.234Z,100506.97
2023-01-07T01:38:46.118Z,100509.63
2023-01-07T01:41:16.252Z,100506.34
2023-01-07T01:43:46.367Z,100421.44
2023-01-07T01:46:18.881Z,100508.91
2023-01-07T01:48:53.141Z,100509.75
2023-01-07T01:51:25.513Z,100500.16
2023-01-07T01:53:54.941Z,100507.22
2023-01-07T01:56:28.874Z,100510.47
2023-01-07T01:59:04.114Z,100506.97
2023-01-07T02:01:34.773Z,100509.34
2023-01-07T02:04:12.234Z,100351.00
2023-01-07T02:06:50.545Z,100491.06
2023-01-07T02:09:19.021Z,100497.16
2023-01-07T02:11:57.531Z,100504.28
2023-01-07T02:14:58.295Z,100422.78
2023-01-07T02:17:36.995Z,100500.78
2023-01-07T02:20:26.774Z,100503.34
2023-01-07T02:23:30.264Z,100498.09
2023-01-07T02:26:31.870Z,100417.28
2023-01-07T02:29:37.834Z,100497.16
2023-01-07T02:32:21.234Z,100490.94
2023-01-07T02:34:58.518Z,100421.97
2023-01-07T02:37:36.511Z,100413.34
2023-01-07T02:40:11.921Z,100483.91
2023-01-07T02:42:50.498Z,100474.56
2023-01-07T02:45:28.501Z,100488.50
2023-01-07T02:47:59.536Z,100485.56
2023-01-07T02:50:27.525Z,100493.69
2023-01-07T02:52:55.455Z,100440.91
2023-01-07T02:55:34.859Z,100483.66
2023-01-07T02:58:32.458Z,100472.88
2023-01-07T03:01:26.504Z,100445.44
2023-01-07T03:04:10.798Z,100395.66
2023-01-07T03:06:55.545Z,100471.94
2023-01-07T03:09:32.706Z,100473.06
2023-01-07T03:12:09.036Z,100472.28
2023-01-07T03:14:42.523Z,100434.50
2023-01-07T03:17:13.783Z,100470.53
2023-01-07T03:19:48.502Z,100459.53
2023-01-07T03:22:20.956Z,100454.47
2023-01-07T03:24:51.211Z,100458.19
2023-01-07T03:27:20.118Z,100448.09
2023-01-07T03:29:49.101Z,100443.84
2023-01-07T03:32:19.177Z,100451.06
2023-01-07T03:34:50.055Z,100294.78
2023-01-07T03:37:22.333Z,100451.69
2023-01-07T03:39:51.365Z,100432.97
2023-01-07T03:42:40.223Z,100443.69
2023-01-07T03:45:14.196Z,100433.94
2023-01-07T03:47:45.749Z,100434.06
2023-01-07T03:50:16.639Z,100432.59
2023-01-07T03:52:48.675Z,100329.03
2023-01-07T03:55:18.831Z,100428.72
2023-01-07T03:57:48.557Z,100435.72
2023-01-07T04:00:16.964Z,100440.28
2023-01-07T04:02:52.615Z,100431.59
2023-01-07T04:05:35.912Z,100429.91
2023-01-07T04:08:03.837Z,100426.28
2023-01-07T04:10:34.930Z,100409.22
2023-01-07T04:13:03.140Z,100262.38
2023-01-07T04:15:32.699Z,100364.13
2023-01-07T04:18:00.935Z,100289.81
2023-01-07T04:20:29.978Z,100250.19
2023-01-07T04:22:59.411Z,100406.84
2023-01-07T04:25:27.292Z,100378.84
2023-01-07T04:27:56.100Z,100394.69
2023-01-07T04:30:25.298Z,100393.91
2023-01-07T04:32:53.261Z,100385.13
2023-01-07T04:35:21.538Z,100238.31
2023-01-07T04:37:49.769Z,100383.66
2023-01-07T04:40:19.421Z,100390.09
2023-01-07T04:42:47.523Z,100302.69
2023-01-07T04:45:15.488Z,100234.66
2023-01-07T04:47:43.576Z,100375.16
2023-01-07T04:50:11.797Z,100380.06
2023-01-07T04:52:40.603Z,100373.34
2023-01-07T04:55:11.121Z,100378.91
2023-01-07T04:57:41.521Z,100203.84
2023-01-07T05:00:12.127Z,100351.69
2023-01-07T05:02:40.806Z,100371.63
2023-01-07T05:05:11.576Z,100263.72
2023-01-07T05:07:40.819Z,100301.44
2023-01-07T05:10:10.623Z,100367.25
2023-01-07T05:12:38.840Z,100374.50
2023-01-07T05:15:12.238Z,100358.38
2023-01-07T05:17:42.015Z,100368.31
2023-01-07T05:20:11.280Z,100329.88
2023-01-07T05:22:40.875Z,100260.53
2023-01-07T05:25:11.012Z,100364.91
2023-01-07T05:27:38.874Z,100259.84
2023-01-07T05:30:11.962Z,100197.06
2023-01-07T05:32:39.853Z,100180.25
2023-01-07T05:35:08.702Z,100362.25
2023-01-07T05:37:36.893Z,100186.63
2023-01-07T05:40:07.401Z,100360.06
2023-01-07T05:42:35.459Z,100219.41
2023-01-07T05:45:03.496Z,100237.38
2023-01-07T05:47:33.048Z,100315.72
2023-01-07T05:50:01.064Z,100297.38
2023-01-07T05:52:29.125Z,100290.34
2023-01-07T05:54:56.994Z,100359.03
2023-01-07T05:57:25.030Z,100342.28
2023-01-07T05:59:52.947Z,100351.13
2023-01-07T06:02:20.871Z,100273.56
2023-01-07T06:04:50.250Z,100366.47
2023-01-07T06:07:18.402Z,100304.06
2023-01-07T06:09:46.354Z,100351.25
2023-01-07T06:12:14.207Z,100350.91
2023-01-07T06:14:42.023Z,100343.13
2023-01-07T06:17:09.976Z,100347.50
2023-01-07T06:19:37.903Z,100356.59
2023-01-07T06:22:07.467Z,100352.81
2023-01-07T06:24:35.421Z,100213.13
2023-01-07T06:27:03.286Z,100346.25
2023-01-07T06:29:31.156Z,100340.03
2023-01-07T06:31:59.595Z,100316.16
2023-01-07T06:34:27.497Z,100345.56
2023-01-07T06:36:55.299Z,100343.06
2023-01-07T06:39:24.574Z,100277.38
2023-01-07T06:41:52.459Z,100342.81
2023-01-07T06:44:20.504Z,100346.56
2023-01-07T06:46:48.387Z,100345.75
2023-01-07T06:49:16.273Z,100263.16
2023-01-07T06:51:44.131Z,100345.03
2023-01-07T06:54:12.072Z,100331.44
2023-01-07T06:56:41.711Z,100338.94
2023-01-07T06:59:09.642Z,100331.81
2023-01-07T07:01:37.643Z,100254.84
2023-01-07T07:04:06.003Z,100324.56
2023-01-07T07:06:34.127Z,100330.53
2023-01-07T07:09:01.975Z,100329.53
2023-01-07T07:11:29.883Z,100166.97
2023-01-07T07:14:00.190Z,100320.81
2023-01-07T07:16:28.014Z,100332.25
2023-01-07T07:18:55.913Z,100319.56
2023-01-07T07:21:23.851Z,100319.00
2023-01-07T07:23:51.787Z,100326.50
2023-01-07T07:26:19.754Z,100240.69
2023-01-07T07:28:47.643Z,100296.13
2023-01-07T07:31:17.132Z,100252.03
2023-01-07T07:33:45.074Z,100324.66
2023-01-07T07:36:12.898Z,100324.97
2023-01-07T07:38:40.812Z,100310.94
2023-01-07T07:41:08.674Z,100224.19
2023-01-07T07:43:36.883Z,100163.59
2023-01-07T07:46:05.383Z,100313.00
2023-01-07T07:48:34.909Z,100249.19
2023-01-07T07:51:02.917Z,100313.25
2023-01-07T07:53:30.929Z,100316.56
2023-01-07T07:55:58.900Z,100313.28
2023-01-07T07:58:26.894Z,100291.28
2023-01-07T08:00:54.776Z,100297.34
2023-01-07T08:03:23.924Z,100070.91
2023-01-07T08:05:53.388Z,100297.28
2023-01-07T08:08:21.153Z,100297.25
2023-01-07T08:10:49.038Z,100300.75
2023-01-07T08:13:17.028Z,100285.94
2023-01-07T08:15:45.447Z,100297.13
2023-01-07T08:18:13.521Z,100303.22
2023-01-07T08:20:41.645Z,100291.72
2023-01-07T08:23:11.238Z,100301.31
2023-01-07T08:25:39.338Z,100305.84
2023-01-07T08:28:07.226Z,100284.47
2023-01-07T08:30:35.459Z,100291.13
2023-01-07T08:33:08.901Z,100297.88
2023-01-07T08:35:36.922Z,100293.13
2023-01-07T08:38:06.681Z,100285.38
2023-01-07T08:40:36.530Z,100185.31
2023-01-07T08:43:07.069Z,100292.81
2023-01-07T08:45:36.213Z,100136.56
2023-01-07T08:48:04.264Z,100294.44
2023-01-07T08:50:34.127Z,100297.44
2023-01-07T08:53:02.433Z,100292.59
2023-01-07T08:55:30.702Z,100251.19
2023-01-07T08:58:00.285Z,100289.66
2023-01-07T09:00:28.382Z,100220.69
2023-01-07T09:02:56.281Z,100276.25
2023-01-07T09:05:24.590Z,100220.41
2023-01-07T09:07:54.164Z,100271.81
2023-01-07T09:10:22.394Z,100134.31
2023-01-07T09:12:50.430Z,100103.78
2023-01-07T09:15:19.768Z,100282.72
2023-01-07T09:17:47.664Z,100271.63
2023-01-07T09:20:15.544Z,100286.53
2023-01-07T09:22:43.625Z,100142.84
2023-01-07T09:25:11.941Z,100277.84
2023-01-07T09:27:40.365Z,100253.09
2023-01-07T09:30:09.815Z,100196.09
2023-01-07T09:32:39.146Z,100271.78
2023-01-07T09:35:08.255Z,100276.94
2023-01-07T09:37:36.148Z,100266.88
2023-01-07T09:40:05.229Z,100261.09
2023-01-07T09:42:42.806Z,100266.50
2023-01-07T09:45:18.321Z,100168.59
2023-01-07T09:47:52.040Z,100268.59
2023-01-07T09:50:29.204Z,100255.91
2023-01-07T09:53:01.950Z,100263.13
2023-01-07T09:55:37.382Z,100214.34
2023-01-07T09:58:05.655Z,100261.56
2023-01-07T10:00:36.433Z,100250.16
2023-01-07T10:03:17.580Z,100243.41
2023-01-07T10:05:56.996Z,100078.78
2023-01-07T10:08:38.227Z,100227.97
2023-01-07T10:11:18.653Z,100237.94
2023-01-07T10:14:02.919Z,100191.03
2023-01-07T10:16:39.779Z,100223.53
2023-01-07T10:19:20.665Z,100214.81
2023-01-07T10:21:55.401Z,100128.63
2023-01-07T10:24:27.803Z,100228.38
2023-01-07T10:26:59.852Z,100177.03
2023-01-07T10:29:33.152Z,100195.91
2023-01-07T10:32:08.525Z,100204.53
2023-01-07T10:34:46.100Z,100035.75
2023-01-07T10:37:21.315Z,100232.19
2023-01-07T10:39:57.759Z,100132.56
2023-01-07T10:42:33.758Z,100127.81
2023-01-07T10:45:24.411Z,100207.78
2023-01-07T10:48:18.212Z,100204.88
2023-01-07T10:51:08.770Z,100111.94
2023-01-07T10:53:49.435Z,100191.31
2023-01-07T10:56:27.905Z,100192.63
2023-01-07T10:58:56.207Z,100193.91
2023-01-07T11:01:27.205Z,100197.97
2023-01-07T11:03:57.143Z,100194.34
2023-01-07T11:06:39.320Z,100201.25
2023-01-07T11:09:11.979Z,100202.94
2023-01-07T11:11:41.413Z,100188.38
2023-01-07T11:14:13.934Z,100171.63
2023-01-07T11:16:48.568Z,100182.13
2023-01-07T11:19:21.020Z,100075.00
2023-01-07T11:21:52.078Z,100182.59
2023-01-07T11:24:31.309Z,100158.69
2023-01-07T11:27:05.392Z,100081.16
2023-01-07T11:29:39.914Z,100135.94
2023-01-07T11:32:20.091Z,100151.03
2023-01-07T11:34:56.521Z,99993.22
2023-01-07T11:37:40.729Z,100151.22
2023-01-07T11:40:21.928Z,100123.94
2023-01-07T11:42:52.331Z,100131.28
2023-01-07T11:45:22.593Z,100132.91
2023-01-07T11:47:54.597Z,100127.69
2023-01-07T11:50:25.949Z,100117.59
2023-01-07T11:53:00.308Z,100107.19
2023-01-07T11:55:28.896Z,100096.25
2023-01-07T11:58:29.799Z,100096.16
2023-01-07T12:00:45.912Z,100092.41
2023-01-07T12:03:15.246Z,99999.31
2023-01-07T12:05:45.430Z,100078.78
2023-01-07T12:08:23.889Z,100066.53
2023-01-07T12:10:56.437Z,100047.44
2023-01-07T12:13:27.649Z,100050.94
2023-01-07T12:15:58.746Z,100038.78
2023-01-07T12:18:50.809Z,99971.69
2023-01-07T12:21:34.576Z,99961.97
2023-01-07T12:24:36.868Z,100025.47
2023-01-07T12:27:14.365Z,99980.47
2023-01-07T12:29:57.248Z,100018.13
2023-01-07T12:32:39.672Z,100030.06
2023-01-07T12:35:15.027Z,100030.56
2023-01-07T12:37:49.006Z,99927.53
2023-01-07T12:40:28.560Z,99988.06
2023-01-07T12:43:03.326Z,100015.50
2023-01-07T12:45:40.614Z,99991.72
2023-01-07T12:48:18.124Z,99882.50
2023-01-07T12:50:50.999Z,100001.38
2023-01-07T12:53:27.775Z,99994.22
2023-01-07T12:56:01.215Z,99982.50
2023-01-07T12:58:40.941Z,99988.03
2023-01-07T13:01:18.180Z,99980.72
2023-01-07T13:03:55.526Z,99984.34
2023-01-07T13:06:36.749Z,99976.03
2023-01-07T13:09:15.121Z,99975.97
2023-01-07T13:12:04.758Z,99973.94
2023-01-07T13:14:39.331Z,99967.56
2023-01-07T13:17:16.402Z,99963.47
2023-01-07T13:19:44.924Z,99946.59
2023-01-07T13:22:18.428Z,99797.69
2023-01-07T13:24:57.545Z,99905.00
2023-01-07T13:27:32.740Z,99941.25
2023-01-07T13:30:15.980Z,99924.38
2023-01-07T13:33:05.549Z,99916.81
2023-01-07T13:35:56.677Z,99803.91
2023-01-07T13:38:52.862Z,99930.81
2023-01-07T13:41:34.260Z,99921.03
2023-01-07T13:44:40.847Z,99925.25
2023-01-07T13:47:12.717Z,99845.78
2023-01-07T13:49:40.820Z,99903.38
2023-01-07T13:52:28.051Z,99851.50
2023-01-07T13:54:59.345Z,99900.94
2023-01-07T13:57:43.362Z,99897.97
2023-01-07T14:00:42.353Z,99895.97
2023-01-07T14:03:36.560Z,99889.53
2023-01-07T14:06:44.276Z,99886.13
2023-01-07T14:09:18.693Z,99716.53
2023-01-07T14:12:05.759Z,99866.25
2023-01-07T14:14:45.818Z,99862.97
2023-01-07T14:17:28.115Z,99820.38
2023-01-07T14:20:04.526Z,99844.50
2023-01-07T14:22:43.269Z,99689.16
2023-01-07T14:25:44.301Z,99890.94
2023-01-07T14:28:54.656Z,99879.16
2023-01-07T14:31:23.093Z,99885.38
2023-01-07T14:33:58.133Z,99885.03
2023-01-07T14:36:46.728Z,99877.97
2023-01-07T14:39:36.887Z,99862.22
2023-01-07T14:42:49.559Z,99869.72
2023-01-07T14:45:56.130Z,99870.84
2023-01-07T14:48:32.981Z,99867.59
2023-01-07T14:51:46.706Z,99869.78
2023-01-07T14:54:36.128Z,99852.38
2023-01-07T14:57:12.251Z,99855.22
2023-01-07T15:00:03.479Z,99856.25
2023-01-07T15:02:54.036Z,99746.00
2023-01-07T15:05:53.175Z,99828.69
2023-01-07T15:08:53.437Z,99803.50
2023-01-07T15:11:44.881Z,99731.66
2023-01-07T15:14:39.888Z,99716.06
2023-01-07T15:17:09.232Z,99820.38
2023-01-07T15:19:40.877Z,99843.59
2023-01-07T15:22:28.685Z,99837.63
2023-01-07T15:25:03.885Z,99826.06
2023-01-07T15:27:45.613Z,99821.53
2023-01-07T15:30:28.798Z,99700.59
2023-01-07T15:33:03.218Z,99812.50
2023-01-07T15:35:35.198Z,99808.22
2023-01-07T15:38:05.236Z,99804.38
2023-01-07T15:40:33.207Z,99805.06
2023-01-07T15:43:02.771Z,99678.88
2023-01-07T15:45:30.795Z,99698.94
2023-01-07T15:48:13.037Z,99752.84
2023-01-07T15:50:46.000Z,99593.34
2023-01-07T15:53:22.265Z,99778.78
2023-01-07T15:55:58.711Z,99779.44
2023-01-07T15:58:37.831Z,99751.94
2023-01-07T16:01:06.432Z,99791.28
2023-01-07T16:03:38.062Z,99781.22
2023-01-07T16:06:22.814Z,99690.81
2023-01-07T16:08:52.009Z,99767.41
2023-01-07T16:11:25.197Z,99655.22
2023-01-07T16:13:59.340Z,99769.03
2023-01-07T16:16:28.363Z,99763.59
2023-01-07T16:18:57.391Z,99754.25
2023-01-07T16:21:28.251Z,99680.25
2023-01-07T16:23:56.353Z,99648.97
2023-01-07T16:26:31.608Z,99703.09
2023-01-07T16:29:08.087Z,99599.81
2023-01-07T16:31:37.169Z,99702.81
2023-01-07T16:34:38.171Z,99738.44
2023-01-07T16:37:13.727Z,99651.94
2023-01-07T16:39:47.315Z,99719.88
2023-01-07T16:42:23.291Z,99734.13
2023-01-07T16:45:04.956Z,99727.31
2023-01-07T16:47:34.775Z,99737.72
2023-01-07T16:50:44.245Z,99747.31
2023-01-07T16:53:24.751Z,99731.41
2023-01-07T16:55:54.627Z,99633.06
2023-01-07T16:58:30.268Z,99449.19
2023-01-07T17:01:02.384Z,99647.56
2023-01-07T17:03:32.160Z,99676.00
2023-01-07T17:06:04.819Z,99646.50
2023-01-07T17:08:34.668Z,99611.78
2023-01-07T17:11:05.982Z,99658.00
2023-01-07T17:13:37.248Z,99700.56
2023-01-07T17:16:34.243Z,99711.78
2023-01-07T17:19:23.235Z,99709.00
2023-01-07T17:21:51.414Z,99699.19
2023-01-07T17:24:38.675Z,99658.19
2023-01-07T17:27:06.815Z,99692.34
2023-01-07T17:29:36.882Z,99693.56
2023-01-07T17:32:06.951Z,99684.94
2023-01-07T17:34:34.982Z,99505.66
2023-01-07T17:37:02.815Z,99659.59
2023-01-07T17:39:30.872Z,99683.25
2023-01-07T17:42:16.138Z,99645.56
2023-01-07T17:44:44.138Z,99486.75
2023-01-07T17:47:14.070Z,99611.09
2023-01-07T17:49:42.105Z,99542.69
2023-01-07T17:52:11.075Z,99569.78
2023-01-07T17:54:39.885Z,99639.53
2023-01-07T17:57:07.808Z,99563.78
2023-01-07T17:59:36.001Z,99644.75
2023-01-07T18:02:05.669Z,99666.72
2023-01-07T18:04:35.027Z,99658.25
2023-01-07T18:07:02.945Z,99599.97
2023-01-07T18:09:30.784Z,99522.09
2023-01-07T18:12:16.248Z,99652.28
2023-01-07T18:14:44.233Z,99660.91
2023-01-07T18:17:12.203Z,99639.31
2023-01-07T18:19:41.472Z,99670.09
2023-01-07T18:22:09.382Z,99653.94
2023-01-07T18:24:37.348Z,99454.69
2023-01-07T18:27:05.434Z,99581.06
2023-01-07T18:29:33.353Z,99458.06
2023-01-07T18:32:01.603Z,99666.53
2023-01-07T18:34:29.514Z,99661.59
2023-01-07T18:36:58.742Z,99557.59
2023-01-07T18:39:26.922Z,99650.06
2023-01-07T18:41:54.758Z,99655.56
2023-01-07T18:44:23.983Z,99627.66
2023-01-07T18:46:51.917Z,99655.56
2023-01-07T18:49:20.036Z,99657.69
2023-01-07T18:51:48.360Z,99635.53
2023-01-07T18:54:18.299Z,99655.94
2023-01-07T18:56:46.768Z,99603.97
2023-01-07T18:59:15.017Z,99598.44
2023-01-07T19:01:43.540Z,99564.97
2023-01-07T19:04:11.556Z,99644.41
2023-01-07T19:06:39.522Z,99643.66
2023-01-07T19:09:07.516Z,99641.00
2023-01-07T19:11:38.236Z,99568.50
2023-01-07T19:14:06.157Z,99647.03
2023-01-07T19:16:34.105Z,99647.03
2023-01-07T19:19:02.342Z,99471.59
2023-01-07T19:21:30.217Z,99645.03
2023-01-07T19:23:58.886Z,99626.38
2023-01-07T19:26:27.312Z,99651.88
2023-01-07T19:28:56.723Z,99585.63
2023-01-07T19:31:24.640Z,99589.75
2023-01-07T19:33:52.524Z,99640.81
2023-01-07T19:36:20.854Z,99638.88
2023-01-07T19:38:49.649Z,99630.25
2023-01-07T19:41:19.266Z,99594.59
2023-01-07T19:43:47.864Z,99617.94
2023-01-07T19:46:17.447Z,99616.84
2023-01-07T19:48:48.065Z,99581.75
2023-01-07T19:51:16.265Z,99596.47
2023-01-07T19:53:44.113Z,99588.38
2023-01-07T19:56:13.561Z,99590.47
2023-01-07T19:58:41.949Z,99569.22
2023-01-07T20:01:12.725Z,99575.28
2023-01-07T20:03:42.755Z,99542.03
2023-01-07T20:06:13.174Z,99478.84
2023-01-07T20:08:41.985Z,99565.25
2023-01-07T20:11:10.287Z,99553.63
2023-01-07T20:13:39.628Z,99544.91
2023-01-07T20:16:09.394Z,99440.09
2023-01-07T20:18:41.409Z,99408.44
2023-01-07T20:21:11.114Z,99523.69
2023-01-07T20:23:40.392Z,99539.41
2023-01-07T20:26:11.705Z,99537.75
2023-01-07T20:28:39.686Z,99466.34
2023-01-07T20:31:09.098Z,99550.91
2023-01-07T20:33:37.113Z,99358.19
2023-01-07T20:36:08.162Z,99538.03
2023-01-07T20:38:38.119Z,99450.84
2023-01-07T20:41:06.698Z,99521.88
2023-01-07T20:43:35.712Z,99526.06
2023-01-07T20:46:05.326Z,99539.84
2023-01-07T20:48:33.622Z,99540.56
2023-01-07T20:51:06.576Z,99545.56
2023-01-07T20:53:35.259Z,99534.25
2023-01-07T20:56:06.128Z,99542.94
2023-01-07T20:58:36.030Z,99536.78
2023-01-07T21:01:04.982Z,99548.38
2023-01-07T21:03:33.051Z,99521.09
2023-01-07T21:06:01.151Z,99546.16
2023-01-07T21:08:29.331Z,99521.88
2023-01-07T21:10:57.306Z,99258.94
2023-01-07T21:13:27.174Z,99529.03
2023-01-07T21:15:55.114Z,99470.59
2023-01-07T21:18:23.022Z,99484.50
2023-01-07T21:20:51.133Z,99417.88
2023-01-07T21:23:18.992Z,99483.69
2023-01-07T21:25:48.762Z,99503.22
2023-01-07T21:28:16.847Z,99501.38
2023-01-07T21:30:46.633Z,99463.00
2023-01-07T21:33:14.795Z,99452.88
2023-01-07T21:35:42.888Z,99487.63
2023-01-07T21:38:10.924Z,99482.53
2023-01-07T21:40:42.509Z,99501.34
2023-01-07T21:43:10.512Z,99500.28
2023-01-07T21:45:38.731Z,99270.66
2023-01-07T21:48:08.212Z,99496.00
2023-01-07T21:50:36.066Z,99505.91
2023-01-07T21:53:03.961Z,99421.44
2023-01-07T21:55:31.846Z,99490.59
2023-01-07T21:57:59.656Z,99492.41
2023-01-07T22:00:27.627Z,99354.47
2023-01-07T22:02:55.901Z,99431.75
2023-01-07T22:05:25.066Z,99485.19
2023-01-07T22:07:52.970Z,99487.47
2023-01-07T22:10:20.775Z,99488.94
2023-01-07T22:12:48.730Z,99494.56
2023-01-07T22:15:16.644Z,99380.41
2023-01-07T22:17:44.605Z,99486.16
2023-01-07T22:20:13.696Z,99424.84
2023-01-07T22:22:42.953Z,99499.78
2023-01-07T22:25:11.152Z,99456.00
2023-01-07T22:27:39.128Z,99482.66
2023-01-07T22:30:09.201Z,99442.16
2023-01-07T22:32:37.188Z,99390.41
2023-01-07T22:35:05.683Z,99478.09
2023-01-07T22:37:33.711Z,99484.59
2023-01-07T22:40:06.025Z,99483.59
2023-01-07T22:42:38.517Z,99490.59
2023-01-07T22:45:11.692Z,99438.94
2023-01-07T22:47:43.233Z,99347.47
2023-01-07T22:50:14.439Z,99277.41
2023-01-07T22:52:43.472Z,99414.31
2023-01-07T22:55:13.468Z,99429.22
2023-01-07T22:57:41.957Z,99459.50
2023-01-07T23:00:17.165Z,99452.69
2023-01-07T23:02:45.031Z,99432.53
2023-01-07T23:05:13.457Z,99439.03
2023-01-07T23:07:41.275Z,99365.00
2023-01-07T23:10:09.762Z,99429.13
2023-01-07T23:12:39.170Z,99370.13
2023-01-07T23:15:08.792Z,99354.31
2023-01-07T23:17:36.816Z,99426.69
2023-01-07T23:20:05.428Z,99307.03
2023-01-07T23:22:33.348Z,99297.91
2023-01-07T23:25:01.203Z,99408.84
2023-01-07T23:27:29.199Z,99294.50
2023-01-07T23:29:59.028Z,99415.00
2023-01-07T23:32:27.014Z,99418.47
2023-01-07T23:34:54.958Z,99416.00
2023-01-07T23:37:22.917Z,99420.69
2023-01-07T23:39:50.960Z,99322.50
2023-01-07T23:42:19.701Z,99390.28
2023-01-07T23:44:47.776Z,99421.50
2023-01-07T23:47:17.221Z,99399.69
2023-01-07T23:49:45.227Z,99418.53
2023-01-07T23:52:13.185Z,99390.47
2023-01-07T23:54:41.463Z,99393.13
2023-01-07T23:57:09.606Z,99399.28
2023-01-07T23:59:37.671Z,99305.06
